Nicolas Caicedo

Scout - Cortulua
4 Dec 2028
Monday
Process

Personality

Adaptability (15) Ambition (3) Controversy (6) Loyalty (19) Pressure (19) Professionalism (6) Sportsmanship (13) Temperament (10)

Profile

Coaching Style Democratic
License National A
Determination 6
Man Management 8
Motivating 3
Discipline 10
Job Satisfaction
100%
Fatigue
0%
Role Scout
Wage 46.3K p/w
Contract 14.03.2030

Performance

Behaviour Good
Training Effectiveness
33%
Player Development
55%
Injury Prevention
20%
Tactical Implementation
25%

Recent Events

Assessed a player now
Attended a recruitment meeting now
Assessed a player now
Attended a recruitment meeting 7d ago
Assessed a player 7d ago
Assessed a player 7d ago
Assessed a player 7d ago
Assessed a player 14d ago

Currently Monitoring

159
Player Club Status Ability Confidence Watched Last Observed Latest Vote
Luciano Posadas Central Córdoba SdE Active 103 / 97 40% 2 01.12.2028 -
Yeifer Herrera Leones Active 92 / 104 58% 1 01.12.2028 -
José Neto Benfica Active 130 / 133 40% 1 01.12.2028 -
Juan Sebastián Herrera Deportivo La Guaira Active 123 / 115 40% 1 30.11.2028 -
Santiago Moyano Central Córdoba SdE Active 111 / 123 40% 1 30.11.2028 -
Jáder Quiñónes Once Caldas Active 130 / 116 40% 1 28.11.2028 -
Jaminton Campaz Rosario Central Active 133 / 131 40% 1 28.11.2028 -
Emiliano Saliadarre Miramar Misiones Active 114 / 113 40% 1 27.11.2028 -
Elías Cabrera Vélez Active 125 / 126 40% 1 27.11.2028 -
Luciano Cosentino Wanderers Active 130 / 122 40% 2 25.11.2028 -
Martín Campos Ferro Carril Oeste Active 115 / 121 40% 1 25.11.2028 -
Yuber Quiñónes Patriotas Active 129 / 114 40% 1 22.11.2028 -
Gonzalo Gómez Juventud Active 107 / 114 40% 1 22.11.2028 -
Alan Velasco Fortaleza Active 138 / 137 40% 2 21.11.2028 -
Oscar Garrido Mitre Active 108 / 114 40% 1 21.11.2028 -
Tomás Pozzo Godoy Cruz Active 135 / 127 40% 1 18.11.2028 -
Manuel Duarte Barracas Central Active 125 / 118 40% 1 18.11.2028 -
Rodrigo Cabral Huracán Active 126 / 121 40% 1 14.11.2028 -
Alex Luna Instituto Active 143 / 129 40% 1 14.11.2028 -
Giovanni Leoni Lincoln City Active 145 / 144 40% 1 13.11.2028 -
Christos Mouzakitis Hull City Active 137 / 141 40% 1 13.11.2028 -
Juan Velázquez Belgrano Active 129 / 124 40% 1 13.11.2028 -
Lautaro Giaccone Argentinos Juniors Active 129 / 129 40% 1 13.11.2028 -
Tyler Fletcher Rotherham United Active 103 / 122 40% 2 10.11.2028 -
Nicolás Retamar Ferro Carril Oeste Active 126 / 114 40% 1 10.11.2028 -
Bruno Leyes Godoy Cruz Active 128 / 123 40% 1 10.11.2028 -
Mauro Matorras Central Norte Active 95 / 103 40% 1 10.11.2028 -
Agustín Ojeda Seattle Sounders Active 119 / 129 40% 1 07.11.2028 -
Santiago Montiel Independiente Active 122 / 131 40% 1 07.11.2028 -
Felipe Varela Trujillanos Active 86 / 103 40% 2 06.11.2028 -
Ayyoub Bouaddi Stoke City Active 166 / 152 40% 1 06.11.2028 -
Juan Bisanz Huracán Active 122 / 129 40% 1 28.10.2028 -
Daniel Barrea Godoy Cruz Active 123 / 117 40% 1 28.10.2028 -
Jaen Pineda Real Cartagena Active 131 / 118 40% 1 27.10.2028 -
Néider Ospina Llaneros Active 117 / 114 40% 1 27.10.2028 -
Patricio Moyano Defensores Active 113 / 114 40% 1 26.10.2028 -
Nahuel Curcio Colón Active 122 / 110 40% 1 26.10.2028 -
Alan Lescano Argentinos Juniors Active 141 / 134 40% 1 23.10.2028 -
Cheikh Sabaly Vancouver Whitecaps Active 129 / 127 40% 1 23.10.2028 -
Tomás Escalante River Plate Active 131 / 119 40% 1 22.10.2028 -
Matías Reali San Lorenzo Active 124 / 122 40% 1 22.10.2028 -
Sebastian Rodriguez Houston Dynamo Active 123 / 133 40% 3 18.10.2028 -
Santiago Espíndola River Plate Active 107 / 119 40% 1 18.10.2028 -
Estanislao López Colón Active 92 / 92 40% 2 17.10.2028 -
Emiliano Bértoli Patronato Active 101 / 94 40% 1 17.10.2028 -
Bongokuhle Hlongwane LA Galaxy Active 130 / 123 40% 1 13.10.2028 -
Esteban Obregón Montevideo City Torque Active 112 / 119 40% 2 11.10.2028 -
Alejo Cruz Juventud Active 118 / 127 40% 2 11.10.2028 -
Jonás Luna Wanderers Active 131 / 121 40% 2 10.10.2028 -
Antony Alonso Deportivo Riestra Active 120 / 116 40% 1 10.10.2028 -
Agustín Rodríguez Juventud Active 135 / 120 40% 1 04.10.2028 -
Ignacio Maestro Puch Independiente Active 130 / 133 40% 1 04.10.2028 -
Aytor Herrera Mineros de Guayana Active 94 / 89 40% 2 03.10.2028 -
Aaron Branca Artigas Active 80 / 88 40% 1 03.10.2028 -
Yury Oyarzo Racing Active 101 / 100 40% 1 02.10.2028 -
Lucas Camejo River Plate Active 92 / 96 40% 1 02.10.2028 -
Agustín Medina Lanús Active 116 / 123 40% 2 05.09.2028 -
Joel Ezra Enyimba Active 87 / 96 40% 2 30.08.2028 -
Ivan Borges Defensores Active 87 / 91 40% 1 30.08.2028 -
Joelson Gamarra General Caballero Active 78 / 77 40% 2 27.08.2028 -
Juan Camilo Córdoba Deportivo Pereira Active 101 / 94 40% 1 26.08.2028 -
Bautista Mamousse Chacarita Juniors Active 88 / 93 40% 1 25.08.2028 -
Mohammed Habib Sarwari Kariobangi Sharks Active 61 / 74 40% 1 25.08.2028 -
Tiago Gordillo San Miguel Active 96 / 92 40% 2 22.08.2028 -
Mateo Caballero Defensor Sporting Active 111 / 109 40% 1 22.08.2028 -
Santiago Noguera Central Córdoba SdE Active 89 / 102 40% 1 19.08.2028 -
Matías Magdaleno Estudiantes Active 118 / 116 40% 1 19.08.2028 -
Thijs Kraaijeveld USM Alger Active 115 / 126 40% 1 18.08.2028 -
Mateo Faure BATE Active 105 / 87 40% 1 18.08.2028 -
Óscar Hinojosa Metropolitanos Active 78 / 83 40% 1 15.08.2028 -
Simone Suppa Virtus Verona Active 93 / 88 40% 1 14.08.2028 -
Kamaldeen Atiemo Wa All Stars Active 119 / 109 40% 1 13.08.2028 -
Abubakar Adams Aduana Stars Active 86 / 89 40% 1 12.08.2028 -
Martim Cunha Porto Active 126 / 114 40% 1 07.08.2028 -
Cheveyo Tsawa Club Brugge Active 121 / 127 40% 1 10.07.2028 -
Ben Nelson Leicester City Active 156 / 149 40% 1 12.06.2028 -
Jayson Molumby West Bromwich Albion Active 143 / 127 40% 1 12.06.2028 -
Finn Azaz Southampton Active 137 / 141 40% 1 30.05.2028 -
Tyrese Campbell Sheffield United Active 138 / 137 40% 3 29.05.2028 -
Jaidon Anthony Derby County Active 143 / 136 40% 2 23.05.2028 -
Antoni Milambo Brentford Active 154 / 154 40% 2 23.05.2028 -
Callum O'Hare Sheffield United Active 147 / 140 40% 1 18.05.2028 -
Marcus Tavernier Bournemouth Active 145 / 145 40% 1 17.05.2028 -
Jayden Bogle Leeds United Active 153 / 146 40% 1 17.05.2028 -
Lamare Bogarde Reading Active 130 / 140 40% 2 15.05.2028 -
Ben Gannon Doak Charlton Athletic Active 142 / 149 40% 3 15.05.2028 -
Ra'ees Bangura-Williams Millwall Active 111 / 117 40% 1 14.05.2028 -
Samuel Edozie Southampton Active 138 / 136 40% 1 11.05.2028 -
Stanley Mills Crewe Alexandra Active 143 / 133 40% 2 07.05.2028 -
Camilo Ibarra Tigres Active 103 / 103 42% 1 / 1m 03.05.2028 -
Orles Aragón Tigres Active 103 / 103 42% 1 / 1m 03.05.2028 -
Callum Brittain Middlesbrough Active 146 / 125 40% 1 30.04.2028 -
Harry Wilson Leeds United Active 137 / 146 40% 1 29.04.2028 -
Malick Fofana Sunderland Active 153 / 154 40% 1 25.04.2028 -
Santiago Pierotti Lecce Active 140 / 137 40% 1 24.04.2028 -
Riley McGree Middlesbrough Active 126 / 127 40% 1 24.04.2028 -
Carlos Alcaraz Stoke City Active 165 / 158 40% 1 23.04.2028 -
Tyreece Campbell Charlton Athletic Active 125 / 127 40% 1 22.04.2028 -
Mohamed-Ali Cho Hull City Active 159 / 146 40% 1 21.04.2028 -
Ilias Chair Queens Park Rangers Active 127 / 138 40% 1 21.04.2028 -
Kwadwo Baah Watford Active 136 / 129 40% 1 20.04.2028 -
Archie Gray Southampton Active 137 / 159 40% 1 16.04.2028 -
Malik Mothersille Stockport County Active 134 / 125 40% 1 15.04.2028 -
Jaden Philogene Wolverhampton Active 157 / 148 40% 1 14.04.2028 -
Erick Pulga Bahia Active 138 / 139 40% 1 14.04.2028 -
Georginio Rutter Brighton Active 142 / 160 40% 1 12.04.2028 -
Andrés Gómez Vasco da Gama Active 150 / 141 40% 2 11.04.2028 -
Vitaly Janelt Derby County Active 136 / 153 40% 1 11.04.2028 -
Quilindschy Hartman Burnley Active 145 / 142 40% 2 03.04.2028 -
Abdoul Ouattara Port Vale Active 141 / 129 40% 1 03.04.2028 -
Vasil Kušej Slavia Prague Active 150 / 142 40% 1 23.03.2028 -
Fábio Carvalho Brentford Active 158 / 140 40% 1 21.03.2028 -
Zito Luvumbo Cagliari Active 126 / 128 40% 2 19.03.2028 -
Aaron Hickey Brentford Active 136 / 152 40% 1 19.03.2028 -
Nuno Moreira Vasco da Gama Active 141 / 127 40% 1 18.03.2028 -
Danilo Botafogo Active 143 / 144 40% 1 09.03.2028 -
Domagoj Drožđek Tractor Active 132 / 136 40% 1 08.03.2028 -
Mfundo Vilakazi Free State Stars Active 133 / 122 40% 1 07.03.2028 -
Miguel Palacios Universitario Popayan Active 122 / 125 30% 1 / 1m 23.02.2028 -
Lautaro Gordillo Colegiales Active 121 / 108 40% 2 28.11.2027 -
Tadeo Allende Inter Miami CF Active 141 / 121 40% 2 28.11.2027 -
Wessam Abou Ali Columbus Crew Active 123 / 131 40% 1 27.11.2027 -
Juan Rocca Gimnasia y Tiro Active 115 / 114 40% 1 26.11.2027 -
Talles Magno New York City Active 150 / 138 40% 2 23.11.2027 -
Kévin Denkey FC Cincinnati Active 143 / 137 40% 1 23.11.2027 -
Matías Arezo Penarol Active 129 / 125 40% 1 22.11.2027 -
Ignacio Russo Tigre Active 128 / 124 40% 2 20.11.2027 -
Juan Cruz de los Santos Nacional Active 118 / 126 40% 2 15.11.2027 -
Jalal Abdullai Molde Active 120 / 126 40% 1 15.11.2027 -
Francisco Galván Deportivo Municipal Active 110 / 107 40% 1 13.11.2027 -
Francisco Bonfiglio Boston River Active 115 / 115 40% 1 13.11.2027 -
Agustín Gallo Tristán Suárez Active 125 / 106 40% 1 10.11.2027 -
Augusto Berrondo Tristán Suárez Active 100 / 106 40% 1 10.11.2027 -
Yoshan Valois Lanús Active 114 / 117 40% 1 08.11.2027 -
Petar Musa FC Dallas Active 127 / 136 40% 1 08.11.2027 -
Jefry Zapata Aldosivi Active 129 / 121 40% 1 06.11.2027 -
Germán Berterame Inter Miami CF Active 134 / 132 40% 1 06.11.2027 -
Daniel Karlsbakk Sarpsborg 08 Active 137 / 118 40% 1 05.11.2027 -
Patrick Preciado Deportivo Pasto Active 98 / 106 40% 1 02.11.2027 -
Esteban da Silva Racing Active 104 / 115 40% 1 01.11.2027 -
Renzo Reynaga Patronato Active 113 / 111 40% 1 26.10.2027 -
Cristian Barros Cerro Active 120 / 110 40% 1 22.10.2027 -
Brayan Moreno Santa Fe Active 121 / 109 40% 1 21.10.2027 -
Tomás Fernández Aldosivi Active 127 / 112 40% 1 19.10.2027 -
Ivo Costantino River Plate Active 112 / 114 40% 1 19.10.2027 -
Juan David Rueda Alianza Petrolera Active 117 / 110 40% 1 15.10.2027 -
Marcelo Torres Gimnasia La Plata Active 113 / 113 40% 1 14.10.2027 -
Sebastián Cocimano Nueva Chicago Active 101 / 117 40% 2 11.10.2027 -
Luca Langoni Columbus Crew Active 135 / 136 40% 1 11.10.2027 -
Leonardo Campana New England Revolution Active 137 / 137 40% 1 08.10.2027 -
Facundo Krüger Temperley Active 112 / 118 40% 1 07.10.2027 -
Rafael Moreno Atletico Venezuela Active 107 / 114 40% 1 07.10.2027 -
César Magallan Estudiantes de Merida Active 103 / 104 40% 1 06.10.2027 -
Yegor Kortsov Dinamo Brest Active 127 / 100 40% 1 06.10.2027 -
Williams Barlasina Fortaleza CEIF Active 122 / 122 44% 2 / 2m 29.09.2027 -
Joan Cajares Fortaleza CEIF Active 111 / 114 30% 1 / 1m 21.07.2027 -
Maxence Prévot OH Leuven Active 121 / 127 40% 1 28.12.2026 -
Nahuel Losada Lanús Active 123 / 121 40% 1 28.12.2026 -
Luis Moreno Veracruz Active 132 / 127 40% 1 17.10.2026 -